Terminal Aerodrome Forecast
Issued by NWS Pocatello, ID

Home | Current Version | Previous Version | Text Only | Print | Product List | Glossary On
Versions: 1 2 3 4 5 6 7 8 9 10 11 12 13
000
FTUS45 KPIH 250520
TAFIDA
TAF
KIDA 250520Z 2506/2606 01006KT P6SM SCT110 OVC200
     FM251700 21011KT P6SM VCTS FEW060 SCT100CB BKN150
     FM260300 16008KT P6SM VCTS OVC080CB=

USA.gov is the U.S. government's official web portal to all federal, state and local government web resources and services.